Time;durP1;ratioP1;P1;durP2;ratioP2;P2;SDS_P1;SDS_P2;PMS_P1;PMS_P2;Temp;Humidity;BMP_temperature;BMP_pressure;BME280_temperature;BME280_humidity;BME280_pressure;Samples;Min_cycle;Max_cycle;Signal;HPM_P1;HPM_P2
2023/10/20 00:00:44;;;;;;;;;;;;;;;12.65;73.34;99346.69;6213251;23;20405;-81
2023/10/20 00:03:10;;;;;;;;;;;;;;;12.57;73.50;99346.06;6213253;23;20351;-80
2023/10/20 00:05:35;;;;;;;;;;;;;;;12.54;73.02;99353.19;6213405;23;19986;-81
2023/10/20 00:08:01;;;;;;;;;;;;;;;12.51;73.11;99345.34;6212030;23;19918;-81
2023/10/20 00:10:27;;;;;;;;;;;;;;;12.55;73.49;99343.47;6213037;23;19966;-80
2023/10/20 00:12:52;;;;;;;;;;;;;;;12.51;72.78;99347.09;6212775;23;20254;-82
2023/10/20 00:15:18;;;;;;;;;;;;;;;12.42;72.93;99350.00;6213227;23;19958;-82
2023/10/20 00:17:43;;;;;;;;;;;;;;;12.40;72.99;99352.69;6185945;23;19912;-82
2023/10/20 00:20:09;;;;;;;;;;;;;;;12.51;73.01;99355.03;6212834;23;19904;-83
2023/10/20 00:22:35;;;;;;;;;;;;;;;12.39;73.18;99358.03;6212590;23;19919;-82
2023/10/20 00:25:00;;;;;;;;;;;;;;;12.41;73.15;99361.50;6213126;23;20319;-81
2023/10/20 00:27:25;;;;;;;;;;;;;;;12.38;73.01;99349.22;6212656;23;19995;-81
2023/10/20 00:29:51;;;;;;;;;;;;;;;12.27;73.28;99353.97;6211720;23;19955;-81
2023/10/20 00:32:16;;;;;;;;;;;;;;;12.21;73.78;99354.13;6211507;23;20316;-82
2023/10/20 00:34:42;;;;;;;;;;;;;;;12.23;73.53;99360.22;6183169;23;19919;-82
2023/10/20 00:37:07;;;;;;;;;;;;;;;12.26;73.12;99349.56;6209890;23;19908;-83
2023/10/20 00:39:34;;;;;;;;;;;;;;;12.02;74.80;99367.84;6209183;23;19912;-82
2023/10/20 00:42:00;;;;;;;;;;;;;;;12.22;74.17;99348.81;6210039;23;19982;-82
2023/10/20 00:44:25;;;;;;;;;;;;;;;12.21;74.47;99349.69;6209733;23;20324;-80
2023/10/20 00:46:50;;;;;;;;;;;;;;;12.23;74.86;99334.66;6212942;23;19930;-84
2023/10/20 00:49:16;;;;;;;;;;;;;;;12.27;74.24;99344.25;6212483;23;20324;-82
2023/10/20 00:51:42;;;;;;;;;;;;;;;12.20;74.50;99341.81;6212619;23;19915;-81
2023/10/20 00:54:13;;;;;;;;;;;;;;;12.15;73.69;99347.22;6212868;23;19917;-80
2023/10/20 00:56:39;;;;;;;;;;;;;;;12.12;73.82;99345.50;6212614;23;19983;-82
2023/10/20 00:59:04;;;;;;;;;;;;;;;12.05;73.20;99353.66;6212694;23;19970;-80
2023/10/20 01:01:31;;;;;;;;;;;;;;;11.76;73.77;99350.81;6212935;23;19912;-80
2023/10/20 01:03:56;;;;;;;;;;;;;;;11.79;73.97;99342.81;6212669;23;19915;-80
2023/10/20 01:06:21;;;;;;;;;;;;;;;11.81;73.81;99348.06;6212269;23;20251;-80
2023/10/20 01:08:46;;;;;;;;;;;;;;;11.65;73.94;99339.66;6212079;23;19911;-80
2023/10/20 01:11:12;;;;;;;;;;;;;;;11.54;73.66;99328.47;6212485;23;19973;-81
2023/10/20 01:13:37;;;;;;;;;;;;;;;11.40;74.40;99334.09;6212606;23;19904;-79
2023/10/20 01:16:03;;;;;;;;;;;;;;;11.53;73.84;99343.47;6212510;23;19908;-81
2023/10/20 01:18:28;;;;;;;;;;;;;;;11.54;73.83;99339.94;6212347;23;19928;-80
2023/10/20 01:20:54;;;;;;;;;;;;;;;11.46;73.71;99332.19;6213998;23;20305;-79
2023/10/20 01:23:19;;;;;;;;;;;;;;;11.55;73.76;99325.81;6214239;23;19904;-80
2023/10/20 01:25:44;;;;;;;;;;;;;;;11.56;73.05;99324.91;6214269;23;19962;-80
2023/10/20 01:28:10;;;;;;;;;;;;;;;11.51;73.28;99326.81;6214896;23;19907;-81
2023/10/20 01:30:35;;;;;;;;;;;;;;;11.52;73.03;99325.88;6215030;23;19908;-79
2023/10/20 01:33:00;;;;;;;;;;;;;;;11.46;73.03;99326.91;6214612;23;19908;-79
2023/10/20 01:35:26;;;;;;;;;;;;;;;11.47;73.07;99327.78;6214440;23;19982;-80
2023/10/20 01:37:51;;;;;;;;;;;;;;;11.43;72.80;99331.38;6214024;23;19911;-80
2023/10/20 01:40:17;;;;;;;;;;;;;;;11.38;73.33;99328.84;6214558;23;19908;-80
2023/10/20 01:42:42;;;;;;;;;;;;;;;11.29;73.09;99329.06;6214954;23;19911;-80
2023/10/20 01:45:09;;;;;;;;;;;;;;;11.26;73.43;99327.41;6187890;23;20338;-80
2023/10/20 01:47:34;;;;;;;;;;;;;;;11.24;73.52;99320.41;6214841;23;19908;-79
2023/10/20 01:50:00;;;;;;;;;;;;;;;11.24;73.09;99326.53;6213877;23;19919;-80
2023/10/20 01:52:26;;;;;;;;;;;;;;;11.31;72.28;99324.66;6214557;23;19931;-80
2023/10/20 01:54:51;;;;;;;;;;;;;;;11.16;72.81;99325.00;6214518;23;20291;-80
2023/10/20 01:57:16;;;;;;;;;;;;;;;11.20;72.83;99329.28;6214291;23;20003;-79
2023/10/20 01:59:42;;;;;;;;;;;;;;;11.30;72.10;99344.03;6213747;23;20342;-80
2023/10/20 02:02:08;;;;;;;;;;;;;;;11.26;72.39;99339.72;6214624;23;19990;-80
2023/10/20 02:04:33;;;;;;;;;;;;;;;11.24;72.32;99336.25;6214256;23;19907;-80
2023/10/20 02:06:59;;;;;;;;;;;;;;;11.22;72.34;99330.16;6214035;23;19915;-80
2023/10/20 02:09:25;;;;;;;;;;;;;;;11.23;72.43;99334.50;6214046;23;20282;-80
2023/10/20 02:11:56;;;;;;;;;;;;;;;11.30;72.07;99338.75;6214353;23;19915;-79
2023/10/20 02:14:22;;;;;;;;;;;;;;;11.15;72.35;99332.03;6214466;23;19969;-80
2023/10/20 02:16:47;;;;;;;;;;;;;;;11.12;72.69;99334.75;6213975;23;19936;-79
2023/10/20 02:19:14;;;;;;;;;;;;;;;11.24;72.27;99325.69;6214020;23;19935;-82
2023/10/20 02:21:40;;;;;;;;;;;;;;;11.17;72.34;99324.97;6214229;23;19907;-81
2023/10/20 02:24:05;;;;;;;;;;;;;;;11.15;71.84;99326.75;6214213;23;20026;-80
2023/10/20 02:26:30;;;;;;;;;;;;;;;11.22;72.36;99327.50;6213896;23;19915;-81
2023/10/20 02:28:56;;;;;;;;;;;;;;;11.16;72.01;99322.38;6213824;23;19914;-81
2023/10/20 02:31:22;;;;;;;;;;;;;;;11.15;72.32;99320.63;6213925;23;20286;-81
2023/10/20 02:33:47;;;;;;;;;;;;;;;11.09;72.58;99317.22;6212942;23;19904;-81
2023/10/20 02:36:17;;;;;;;;;;;;;;;11.10;72.72;99318.94;6214192;23;20324;-80
2023/10/20 02:38:42;;;;;;;;;;;;;;;11.11;72.54;99315.41;6213526;23;20335;-81
2023/10/20 02:41:08;;;;;;;;;;;;;;;11.07;72.94;99318.16;6213882;23;19908;-80
2023/10/20 02:43:34;;;;;;;;;;;;;;;10.99;73.20;99299.88;6213557;23;19912;-80
2023/10/20 02:45:59;;;;;;;;;;;;;;;11.13;73.12;99290.75;6214405;23;19908;-79
2023/10/20 02:48:24;;;;;;;;;;;;;;;10.85;73.87;99291.41;6213275;23;19919;-81
2023/10/20 02:50:50;;;;;;;;;;;;;;;10.75;73.63;99293.34;6214125;23;19915;-81
2023/10/20 02:53:16;;;;;;;;;;;;;;;10.67;73.15;99287.38;6213527;23;20324;-81
2023/10/20 02:55:42;;;;;;;;;;;;;;;10.68;73.52;99299.69;6214214;23;19986;-81
2023/10/20 02:58:10;;;;;;;;;;;;;;;10.55;73.12;99284.13;6213901;23;19908;-82
2023/10/20 03:00:45;;;;;;;;;;;;;;;10.56;73.13;99283.22;6213575;23;19908;-80
2023/10/20 03:03:12;;;;;;;;;;;;;;;10.51;73.06;99286.88;6213957;23;19943;-80
2023/10/20 03:05:37;;;;;;;;;;;;;;;10.48;73.03;99281.66;6213423;23;19907;-81
2023/10/20 03:08:03;;;;;;;;;;;;;;;10.51;73.34;99281.59;6213674;23;20233;-80
2023/10/20 03:10:28;;;;;;;;;;;;;;;10.60;73.32;99284.03;6213062;23;19908;-80
2023/10/20 03:12:54;;;;;;;;;;;;;;;10.63;73.25;99283.06;6213310;23;20340;-81
2023/10/20 03:15:19;;;;;;;;;;;;;;;10.54;73.23;99278.88;6212557;23;20307;-79
2023/10/20 03:17:45;;;;;;;;;;;;;;;10.57;73.42;99271.75;6213596;23;19915;-81
2023/10/20 03:20:15;;;;;;;;;;;;;;;10.55;74.08;99276.22;6212715;23;19923;-81
2023/10/20 03:22:41;;;;;;;;;;;;;;;10.67;73.32;99287.38;6213571;23;20343;-82
2023/10/20 03:25:08;;;;;;;;;;;;;;;10.72;73.00;99293.41;6213036;23;19919;-81
2023/10/20 03:27:33;;;;;;;;;;;;;;;10.67;73.26;99288.25;6213518;23;20302;-79
2023/10/20 03:29:59;;;;;;;;;;;;;;;10.64;74.30;99280.41;6212601;23;19908;-80
2023/10/20 03:32:24;;;;;;;;;;;;;;;10.53;74.81;99288.56;6213399;23;19908;-81
2023/10/20 03:34:50;;;;;;;;;;;;;;;10.47;75.20;99278.16;6213107;23;19914;-80
2023/10/20 03:37:18;;;;;;;;;;;;;;;10.56;74.83;99282.34;6211667;23;20173;-81
2023/10/20 03:39:43;;;;;;;;;;;;;;;10.60;74.36;99275.22;6211959;23;19935;-80
2023/10/20 03:42:13;;;;;;;;;;;;;;;10.52;74.82;99275.44;6209896;23;19908;-81
2023/10/20 03:44:39;;;;;;;;;;;;;;;10.55;74.37;99277.97;6212526;23;19908;-82
2023/10/20 03:47:05;;;;;;;;;;;;;;;10.50;74.39;99280.72;6211988;23;19982;-78
2023/10/20 03:49:34;;;;;;;;;;;;;;;10.45;73.79;99284.34;6212476;23;19959;-80
2023/10/20 03:51:59;;;;;;;;;;;;;;;10.27;74.12;99288.19;6211544;23;19908;-81
2023/10/20 03:54:25;;;;;;;;;;;;;;;10.35;74.05;99283.69;6212668;23;20389;-82
2023/10/20 03:56:50;;;;;;;;;;;;;;;10.19;74.61;99289.25;6212190;23;19919;-79
2023/10/20 03:59:17;;;;;;;;;;;;;;;10.18;74.13;99291.91;6213143;23;19908;-81
2023/10/20 04:01:43;;;;;;;;;;;;;;;10.14;74.81;99287.59;6186243;23;19993;-81
2023/10/20 04:04:09;;;;;;;;;;;;;;;10.16;74.11;99297.22;6211555;23;20291;-81
2023/10/20 04:06:38;;;;;;;;;;;;;;;10.00;74.00;99303.66;6213125;23;20071;-79
2023/10/20 04:09:08;;;;;;;;;;;;;;;10.06;73.58;99295.63;6212056;23;20331;-79
2023/10/20 04:11:34;;;;;;;;;;;;;;;9.80;73.75;99293.50;6213010;23;20288;-80
2023/10/20 04:14:00;;;;;;;;;;;;;;;9.72;74.34;99298.03;6185125;23;19908;-80
2023/10/20 04:16:27;;;;;;;;;;;;;;;9.79;74.05;99308.44;6211744;23;19915;-81
2023/10/20 04:18:53;;;;;;;;;;;;;;;9.84;74.26;99316.25;6212000;23;19982;-82
2023/10/20 04:21:18;;;;;;;;;;;;;;;9.71;74.40;99301.56;6185632;23;19935;-80
2023/10/20 04:23:43;;;;;;;;;;;;;;;9.86;74.17;99288.97;6212440;23;19908;-79
2023/10/20 04:26:18;;;;;;;;;;;;;;;9.90;73.83;99295.06;6213092;23;19908;-79
2023/10/20 04:28:44;;;;;;;;;;;;;;;9.90;74.35;99287.16;6212986;23;20286;-79
2023/10/20 04:57:53;;;;;;;;;;;;;;;9.91;74.32;99312.59;6213783;23;20011;-83
2023/10/20 05:07:51;;;;;;;;;;;;;;;9.90;74.35;99316.16;6213517;23;19946;-81
2023/10/20 05:10:20;;;;;;;;;;;;;;;9.89;73.10;99324.94;6214004;23;19911;-82
2023/10/20 05:12:45;;;;;;;;;;;;;;;9.84;73.14;99314.47;6213252;23;19919;-80
2023/10/20 05:15:11;;;;;;;;;;;;;;;9.76;73.00;99316.41;6214019;23;19900;-80
2023/10/20 05:17:36;;;;;;;;;;;;;;;9.71;73.73;99326.13;6212815;23;19904;-80
2023/10/20 05:20:05;;;;;;;;;;;;;;;9.65;74.32;99319.22;6212991;23;19912;-81
2023/10/20 05:22:30;;;;;;;;;;;;;;;9.72;74.98;99314.69;6210240;23;19907;-82
2023/10/20 05:24:56;;;;;;;;;;;;;;;9.77;75.40;99317.25;6211502;23;19907;-83
2023/10/20 05:27:21;;;;;;;;;;;;;;;9.82;75.86;99320.66;6211738;23;19938;-81
2023/10/20 05:29:46;;;;;;;;;;;;;;;9.92;75.82;99324.88;6209867;23;19908;-80
2023/10/20 05:32:11;;;;;;;;;;;;;;;10.03;76.24;99322.03;6185306;23;19908;-81
2023/10/20 05:34:37;;;;;;;;;;;;;;;10.10;76.42;99313.13;6211243;23;19908;-82
2023/10/20 05:37:03;;;;;;;;;;;;;;;10.08;77.10;99314.06;6211683;23;19916;-81
2023/10/20 05:39:28;;;;;;;;;;;;;;;10.21;77.35;99315.56;6184350;23;19991;-82
2023/10/20 05:41:54;;;;;;;;;;;;;;;10.32;77.39;99316.22;6211410;23;19984;-83
2023/10/20 05:44:23;;;;;;;;;;;;;;;10.59;77.36;99315.72;6212144;23;19962;-85
2023/10/20 05:46:49;;;;;;;;;;;;;;;10.81;77.49;99305.56;6212871;23;19908;-82
2023/10/20 05:49:15;;;;;;;;;;;;;;;10.95;77.33;99302.59;6212385;23;19958;-82
2023/10/20 05:51:40;;;;;;;;;;;;;;;11.14;77.26;99309.22;6212391;23;19916;-86
2023/10/20 05:54:05;;;;;;;;;;;;;;;11.34;77.63;99318.41;6212216;23;19911;-83
2023/10/20 05:56:31;;;;;;;;;;;;;;;11.43;78.41;99312.91;6212269;23;19915;-87
2023/10/20 05:58:56;;;;;;;;;;;;;;;11.74;77.84;99313.03;6185084;23;19908;-85
2023/10/20 06:01:22;;;;;;;;;;;;;;;11.99;77.06;99312.41;6212503;23;19911;-89
2023/10/20 06:03:47;;;;;;;;;;;;;;;12.24;76.21;99311.72;6186089;23;19930;-86
2023/10/20 06:06:12;;;;;;;;;;;;;;;12.44;76.33;99316.47;6209768;23;19990;-89
2023/10/20 06:08:38;;;;;;;;;;;;;;;12.53;75.16;99316.19;6209228;23;19916;-84
2023/10/20 06:11:04;;;;;;;;;;;;;;;12.72;75.02;99309.44;6210080;23;19908;-87
2023/10/20 06:13:30;;;;;;;;;;;;;;;13.03;74.88;99302.34;6210311;23;19958;-87
2023/10/20 06:15:56;;;;;;;;;;;;;;;13.17;73.58;99305.41;6211086;23;19915;-85
2023/10/20 06:18:22;;;;;;;;;;;;;;;13.26;74.09;99307.75;6210519;23;19911;-87
2023/10/20 06:20:47;;;;;;;;;;;;;;;13.48;73.31;99314.19;6210863;23;20627;-80
2023/10/20 06:23:16;;;;;;;;;;;;;;;13.71;72.23;99316.94;6212644;23;20304;-86
2023/10/20 06:25:47;;;;;;;;;;;;;;;13.90;72.34;99314.53;6213034;23;19908;-90
2023/10/20 06:28:13;;;;;;;;;;;;;;;13.96;71.33;99324.03;6212163;23;19915;-87
2023/10/20 06:30:43;;;;;;;;;;;;;;;14.07;71.66;99329.84;6213437;23;19908;-86
2023/10/20 06:33:17;;;;;;;;;;;;;;;14.36;70.87;99330.59;6213871;23;20311;-85
2023/10/20 06:35:52;;;;;;;;;;;;;;;13.94;69.90;99340.00;6213017;23;19916;-86
2023/10/20 06:38:30;;;;;;;;;;;;;;;13.89;71.23;99334.00;6212576;23;19912;-88
2023/10/20 06:40:57;;;;;;;;;;;;;;;14.15;70.88;99340.19;6202286;23;19919;-87
2023/10/20 06:43:23;;;;;;;;;;;;;;;14.32;71.76;99336.94;6186914;23;20271;-85
2023/10/20 06:45:55;;;;;;;;;;;;;;;14.65;69.83;99340.16;6213395;23;19986;-86
2023/10/20 06:48:20;;;;;;;;;;;;;;;15.08;69.74;99332.34;6214131;23;20308;-87
2023/10/20 06:50:46;;;;;;;;;;;;;;;15.37;68.22;99333.00;6212933;23;19912;-87
2023/10/20 06:53:11;;;;;;;;;;;;;;;15.16;67.54;99334.72;6211934;23;19915;-88
2023/10/20 06:55:40;;;;;;;;;;;;;;;15.35;67.01;99335.72;6212709;23;19907;-87
2023/10/20 06:58:05;;;;;;;;;;;;;;;15.17;67.60;99336.44;6213033;23;19966;-88
2023/10/20 07:00:31;;;;;;;;;;;;;;;15.52;67.39;99331.47;6212287;23;19911;-86
2023/10/20 07:02:56;;;;;;;;;;;;;;;15.03;67.71;99340.50;6212283;23;19908;-86
2023/10/20 07:05:23;;;;;;;;;;;;;;;15.49;65.73;99334.25;6212723;23;19908;-87
2023/10/20 07:07:52;;;;;;;;;;;;;;;15.67;66.66;99337.97;6212510;23;19912;-88
2023/10/20 07:10:18;;;;;;;;;;;;;;;15.69;66.85;99338.75;6213028;23;19908;-87
2023/10/20 07:12:44;;;;;;;;;;;;;;;15.84;64.78;99343.47;6213051;23;20027;-87
2023/10/20 07:15:09;;;;;;;;;;;;;;;16.21;64.17;99336.56;6186474;23;19923;-87
2023/10/20 07:17:34;;;;;;;;;;;;;;;16.35;64.19;99340.41;6212597;23;19934;-87
2023/10/20 07:20:00;;;;;;;;;;;;;;;16.16;63.16;99343.00;6212384;23;19912;-88
2023/10/20 07:22:28;;;;;;;;;;;;;;;16.05;63.62;99344.34;6186169;23;19908;-89
2023/10/20 07:24:53;;;;;;;;;;;;;;;15.56;65.11;99339.25;6212793;23;19915;-87
2023/10/20 07:27:21;;;;;;;;;;;;;;;15.64;65.94;99346.94;6212577;23;20232;-89
2023/10/20 07:29:49;;;;;;;;;;;;;;;15.86;64.50;99341.59;6211464;23;20001;-88
2023/10/20 07:32:17;;;;;;;;;;;;;;;15.96;64.75;99342.09;6186674;23;19978;-89
2023/10/20 07:34:45;;;;;;;;;;;;;;;16.21;65.28;99333.91;6212711;23;20310;-90
2023/10/20 07:37:14;;;;;;;;;;;;;;;16.59;64.63;99338.44;6212719;23;19915;-88
2023/10/20 07:39:58;;;;;;;;;;;;;;;16.71;62.18;99345.88;6212322;23;19908;-89
2023/10/20 07:42:28;;;;;;;;;;;;;;;16.29;64.13;99337.09;6213704;23;19959;-89
2023/10/20 07:44:58;;;;;;;;;;;;;;;16.41;64.12;99333.03;6212499;23;19915;-88
2023/10/20 07:47:34;;;;;;;;;;;;;;;16.90;65.59;99329.94;6212515;23;20256;-89
2023/10/20 07:50:00;;;;;;;;;;;;;;;17.25;61.75;99330.06;6212449;23;19966;-89
2023/10/20 07:52:29;;;;;;;;;;;;;;;17.13;62.39;99333.31;6212815;23;20342;-89
2023/10/20 07:54:57;;;;;;;;;;;;;;;17.44;60.99;99323.81;6212214;23;19912;-88
2023/10/20 07:57:30;;;;;;;;;;;;;;;17.53;60.60;99316.25;6212811;23;19908;-88
2023/10/20 07:59:56;;;;;;;;;;;;;;;18.11;59.41;99314.25;6212476;23;19911;-88
2023/10/20 08:02:22;;;;;;;;;;;;;;;18.22;58.53;99308.34;6213272;23;20294;-87
2023/10/20 08:05:08;;;;;;;;;;;;;;;18.02;58.99;99314.72;6212783;23;19916;-93
2023/10/20 08:07:33;;;;;;;;;;;;;;;17.99;58.91;99314.88;6212396;23;20368;-89
2023/10/20 08:10:14;;;;;;;;;;;;;;;18.23;58.38;99310.94;6212799;23;19908;-90
2023/10/20 08:12:40;;;;;;;;;;;;;;;18.59;57.89;99304.56;6212465;23;19911;-87
2023/10/20 08:15:51;;;;;;;;;;;;;;;;;;;;;
2023/10/20 08:18:33;;;;;;;;;;;;;;;18.77;56.33;99292.03;6212575;23;19991;-89
2023/10/20 08:21:14;;;;;;;;;;;;;;;18.92;55.48;99293.03;6213124;23;19907;-90
2023/10/20 08:23:54;;;;;;;;;;;;;;;19.16;54.98;99297.09;6209919;23;20247;-88
2023/10/20 08:26:23;;;;;;;;;;;;;;;18.87;55.71;99287.06;6212416;23;19904;-89
2023/10/20 08:31:57;;;;;;;;;;;;;;;19.00;56.20;99289.94;6080547;23;19916;-81
2023/10/20 08:34:23;;;;;;;;;;;;;;;19.39;54.84;99282.41;6090759;23;19909;-83
2023/10/20 08:36:49;;;;;;;;;;;;;;;19.37;52.88;99292.28;6077471;23;19909;-83
2023/10/20 08:39:14;;;;;;;;;;;;;;;19.08;54.69;99294.84;6089230;23;20266;-86
2023/10/20 08:41:43;;;;;;;;;;;;;;;19.32;54.41;99288.09;6063979;23;19915;-83
2023/10/20 08:44:12;;;;;;;;;;;;;;;19.22;53.09;99291.38;6089712;23;19987;-85
2023/10/20 08:46:42;;;;;;;;;;;;;;;18.92;54.48;99289.47;6090252;23;19909;-84
2023/10/20 08:52:11;;;;;;;;;;;;;;;19.55;52.85;99288.56;6088311;23;19992;-84
2023/10/20 08:54:37;;;;;;;;;;;;;;;19.56;52.45;99281.41;6089181;23;19915;-85
2023/10/20 08:57:05;;;;;;;;;;;;;;;19.75;52.71;99290.06;6090109;23;20375;-84
2023/10/20 08:59:31;;;;;;;;;;;;;;;19.53;52.36;99290.47;6090046;23;20376;-87
2023/10/20 09:01:56;;;;;;;;;;;;;;;19.40;52.76;99300.13;6089687;23;19916;-84
2023/10/20 09:04:22;;;;;;;;;;;;;;;19.24;52.59;99292.16;6066269;23;19909;-80
2023/10/20 09:06:48;;;;;;;;;;;;;;;19.38;52.08;99296.69;6089293;23;19916;-82
2023/10/20 09:09:14;;;;;;;;;;;;;;;19.79;51.23;99288.97;6143878;23;20366;-81
2023/10/20 09:12:04;;;;;;;;;;;;;;;19.82;50.30;99296.81;6208349;23;19908;-84
2023/10/20 09:14:31;;;;;;;;;;;;;;;19.78;50.90;99279.19;6209203;23;19974;-83
2023/10/20 09:16:59;;;;;;;;;;;;;;;19.85;51.12;99282.38;6210967;23;19908;-88
2023/10/20 09:19:25;;;;;;;;;;;;;;;19.68;52.06;99284.22;6179903;23;20823;-83
2023/10/20 09:21:57;;;;;;;;;;;;;;;19.97;51.88;99284.31;6178603;23;19959;-83
2023/10/20 09:24:27;;;;;;;;;;;;;;;20.09;50.28;99277.34;6205414;23;19914;-81
2023/10/20 09:26:52;;;;;;;;;;;;;;;20.12;49.07;99282.50;6210627;23;19986;-83
2023/10/20 09:29:19;;;;;;;;;;;;;;;20.07;49.03;99268.56;6210546;23;19943;-84
2023/10/20 09:31:45;;;;;;;;;;;;;;;20.23;48.42;99272.97;6209076;23;19938;-83
2023/10/20 09:34:10;;;;;;;;;;;;;;;20.25;48.67;99268.38;6211177;23;19904;-83
2023/10/20 09:36:40;;;;;;;;;;;;;;;20.46;49.15;99261.69;6209888;23;19918;-84
2023/10/20 09:39:35;;;;;;;;;;;;;;;;;;;;;
2023/10/20 09:42:02;;;;;;;;;;;;;;;20.39;49.13;99261.22;6211303;23;19998;-84
2023/10/20 09:44:35;;;;;;;;;;;;;;;20.37;49.14;99255.09;6212304;23;19958;-83
2023/10/20 09:47:10;;;;;;;;;;;;;;;20.65;48.92;99244.47;6185835;23;19907;-83
2023/10/20 09:49:38;;;;;;;;;;;;;;;20.95;48.58;99240.78;6212580;23;20390;-86
2023/10/20 09:52:05;;;;;;;;;;;;;;;20.89;49.00;99236.69;6211588;23;19915;-87
2023/10/20 09:54:31;;;;;;;;;;;;;;;21.00;47.50;99244.03;6212666;23;20006;-82
2023/10/20 09:56:57;;;;;;;;;;;;;;;21.13;46.82;99241.38;6211720;23;19908;-81
2023/10/20 09:59:27;;;;;;;;;;;;;;;21.02;47.05;99232.25;6209683;23;19938;-85
2023/10/20 10:01:53;;;;;;;;;;;;;;;20.99;46.26;99228.88;6212121;23;19938;-87
2023/10/20 10:04:25;;;;;;;;;;;;;;;21.13;46.83;99234.19;6186084;23;19907;-80
2023/10/20 10:06:51;;;;;;;;;;;;;;;21.18;46.85;99223.16;6211052;23;19908;-79
2023/10/20 10:09:18;;;;;;;;;;;;;;;21.02;47.29;99223.31;6210645;23;19957;-82
2023/10/20 10:11:44;;;;;;;;;;;;;;;21.33;47.15;99227.50;6212323;23;19912;-80
2023/10/20 10:14:18;;;;;;;;;;;;;;;21.27;47.38;99226.13;6211643;23;19969;-82
2023/10/20 10:16:53;;;;;;;;;;;;;;;21.40;47.11;99225.28;6212010;23;19934;-81
2023/10/20 10:19:19;;;;;;;;;;;;;;;21.37;47.71;99220.97;6212447;23;19958;-81
2023/10/20 10:21:48;;;;;;;;;;;;;;;21.54;46.99;99213.66;6209609;23;19908;-82
2023/10/20 10:24:14;;;;;;;;;;;;;;;21.53;46.47;99210.09;6210919;23;20251;-83
2023/10/20 10:26:46;;;;;;;;;;;;;;;21.28;47.54;99213.56;6209582;23;19907;-84
2023/10/20 10:29:14;;;;;;;;;;;;;;;21.16;48.16;99212.53;6210752;23;20018;-82
2023/10/20 10:31:40;;;;;;;;;;;;;;;21.27;48.03;99209.13;6212573;23;19952;-82
2023/10/20 10:34:05;;;;;;;;;;;;;;;21.72;46.21;99203.47;6212884;23;19908;-80
2023/10/20 10:36:46;;;;;;;;;;;;;;;21.70;46.39;99205.41;6212606;23;19908;-81
2023/10/20 10:39:23;;;;;;;;;;;;;;;21.77;47.19;99204.03;6211816;23;19912;-81
2023/10/20 10:41:49;;;;;;;;;;;;;;;21.54;47.27;99197.56;6211998;23;19969;-81
2023/10/20 10:44:14;;;;;;;;;;;;;;;21.81;46.46;99192.09;6212402;23;19943;-80
2023/10/20 10:46:39;;;;;;;;;;;;;;;22.02;45.00;99178.16;6212407;23;19919;-81
2023/10/20 10:49:08;;;;;;;;;;;;;;;22.02;44.88;99179.00;6211966;23;19915;-82
2023/10/20 10:51:42;;;;;;;;;;;;;;;21.89;45.85;99173.66;6213089;23;19914;-82
2023/10/20 10:54:07;;;;;;;;;;;;;;;22.08;45.03;99180.41;6211666;23;19978;-81
2023/10/20 10:56:33;;;;;;;;;;;;;;;21.96;45.32;99172.22;6210014;23;19942;-81
2023/10/20 10:58:58;;;;;;;;;;;;;;;22.05;45.01;99169.88;6209769;23;19912;-81
2023/10/20 11:01:23;;;;;;;;;;;;;;;22.08;45.44;99167.81;6208894;23;19915;-82
2023/10/20 11:03:49;;;;;;;;;;;;;;;22.27;45.24;99161.97;6209082;23;20063;-82
2023/10/20 11:06:15;;;;;;;;;;;;;;;22.35;45.19;99170.41;6208740;23;19995;-82
2023/10/20 11:08:44;;;;;;;;;;;;;;;22.57;44.54;99158.09;6208728;23;20324;-82
2023/10/20 11:11:09;;;;;;;;;;;;;;;22.53;44.90;99157.44;6208633;23;20350;-82
2023/10/20 11:13:35;;;;;;;;;;;;;;;22.34;45.17;99147.19;6209430;23;19908;-82
2023/10/20 11:16:01;;;;;;;;;;;;;;;22.49;44.36;99152.41;6208900;23;20228;-82
2023/10/20 11:18:26;;;;;;;;;;;;;;;22.34;44.37;99144.50;6210008;23;19907;-83
2023/10/20 11:20:52;;;;;;;;;;;;;;;22.50;44.21;99146.06;6210712;23;19919;-83
2023/10/20 11:23:28;;;;;;;;;;;;;;;22.63;44.13;99154.06;6210494;23;19915;-82
2023/10/20 11:25:53;;;;;;;;;;;;;;;22.57;43.53;99155.41;6210499;23;19911;-84
2023/10/20 11:28:18;;;;;;;;;;;;;;;22.61;43.73;99156.03;6209826;23;19912;-83
2023/10/20 11:30:45;;;;;;;;;;;;;;;22.48;43.96;99148.00;6209864;23;20339;-83
2023/10/20 11:33:11;;;;;;;;;;;;;;;22.52;44.01;99138.75;6183832;23;19904;-84
2023/10/20 11:35:37;;;;;;;;;;;;;;;22.61;44.33;99140.75;6209696;23;19908;-84
2023/10/20 11:38:03;;;;;;;;;;;;;;;22.75;43.47;99142.41;6209586;23;19981;-83
2023/10/20 11:40:28;;;;;;;;;;;;;;;22.89;44.00;99144.97;6209816;23;20353;-83
2023/10/20 11:42:54;;;;;;;;;;;;;;;22.97;43.53;99140.81;6210019;23;20374;-84
2023/10/20 11:45:23;;;;;;;;;;;;;;;23.07;42.92;99141.84;6178235;23;19916;-83
2023/10/20 11:47:48;;;;;;;;;;;;;;;23.03;43.33;99143.91;6210203;23;19919;-85
2023/10/20 11:50:15;;;;;;;;;;;;;;;22.99;43.28;99128.13;6210605;23;19908;-83
2023/10/20 11:52:41;;;;;;;;;;;;;;;23.03;42.74;99124.22;6181947;23;19987;-84
2023/10/20 11:55:08;;;;;;;;;;;;;;;23.14;42.76;99132.38;6209326;23;19947;-84
2023/10/20 11:57:34;;;;;;;;;;;;;;;23.31;43.13;99131.09;6210128;23;19991;-84
2023/10/20 12:00:02;;;;;;;;;;;;;;;23.23;42.81;99126.28;6210257;23;19939;-85
2023/10/20 12:02:28;;;;;;;;;;;;;;;23.01;43.09;99123.47;6211011;23;19990;-81
2023/10/20 12:04:54;;;;;;;;;;;;;;;23.23;42.84;99114.66;6185431;23;19912;-84
2023/10/20 12:07:20;;;;;;;;;;;;;;;23.22;42.49;99112.97;6209714;23;20377;-85
2023/10/20 12:09:45;;;;;;;;;;;;;;;23.22;43.08;99113.81;6207148;23;19919;-83
2023/10/20 12:12:12;;;;;;;;;;;;;;;23.20;43.25;99110.38;6206663;23;20315;-82
2023/10/20 12:14:37;;;;;;;;;;;;;;;23.36;42.84;99106.50;6209093;23;20304;-82
2023/10/20 12:17:03;;;;;;;;;;;;;;;;;;6208901;23;19943;-84
2023/10/20 12:19:28;;;;;;;;;;;;;;;23.53;43.06;99108.75;6208613;23;19907;-82
2023/10/20 12:21:54;;;;;;;;;;;;;;;23.64;42.62;99096.28;6208928;23;20309;-83
2023/10/20 12:24:19;;;;;;;;;;;;;;;23.80;42.00;99101.31;6206608;23;19965;-83
2023/10/20 12:26:45;;;;;;;;;;;;;;;23.85;41.90;99099.13;6208117;23;19983;-82
2023/10/20 12:29:10;;;;;;;;;;;;;;;23.90;41.30;99091.56;6206574;23;19985;-84
2023/10/20 12:31:35;;;;;;;;;;;;;;;23.98;41.59;99093.63;6206815;23;19908;-83
2023/10/20 12:34:01;;;;;;;;;;;;;;;23.85;41.45;99088.34;6207277;23;19907;-85
2023/10/20 12:36:28;;;;;;;;;;;;;;;23.80;42.26;99086.00;6207284;23;19918;-81
2023/10/20 12:38:53;;;;;;;;;;;;;;;23.75;42.83;99080.13;6207281;23;20314;-83
2023/10/20 12:41:18;;;;;;;;;;;;;;;23.75;42.38;99078.28;6208813;23;19912;-83
2023/10/20 12:43:47;;;;;;;;;;;;;;;23.64;42.84;99077.44;6208434;23;19903;-84
2023/10/20 12:46:12;;;;;;;;;;;;;;;23.69;42.63;99080.63;6208738;23;20058;-83
2023/10/20 12:48:41;;;;;;;;;;;;;;;23.64;42.37;99083.66;6208932;23;19943;-85
2023/10/20 12:51:07;;;;;;;;;;;;;;;23.83;42.24;99082.22;6208792;23;19908;-83
2023/10/20 12:53:32;;;;;;;;;;;;;;;23.91;42.11;99085.16;6207953;23;19912;-84
2023/10/20 12:55:58;;;;;;;;;;;;;;;24.08;42.12;99082.00;6177205;23;19983;-84
2023/10/20 12:58:25;;;;;;;;;;;;;;;24.11;42.32;99078.19;6203221;23;20359;-85
2023/10/20 13:00:51;;;;;;;;;;;;;;;24.30;42.05;99088.34;6208543;23;19911;-86
2023/10/20 13:03:19;;;;;;;;;;;;;;;24.19;41.62;99077.56;6208815;23;19919;-88
2023/10/20 13:05:44;;;;;;;;;;;;;;;23.94;41.94;99084.94;6182413;23;20276;-81
2023/10/20 13:08:10;;;;;;;;;;;;;;;24.00;41.85;99073.66;6210729;23;19908;-82
2023/10/20 13:10:36;;;;;;;;;;;;;;;23.99;42.41;99074.66;6184131;23;19930;-82
2023/10/20 13:13:01;;;;;;;;;;;;;;;24.10;41.80;99073.78;6212273;23;19958;-81
2023/10/20 13:15:28;;;;;;;;;;;;;;;24.09;41.63;99069.38;6211839;23;19918;-83
2023/10/20 13:17:55;;;;;;;;;;;;;;;24.05;41.59;99062.50;6213232;23;19935;-81
2023/10/20 13:20:21;;;;;;;;;;;;;;;24.17;42.23;99064.22;6213880;23;19986;-82
2023/10/20 13:22:46;;;;;;;;;;;;;;;24.25;41.52;99064.47;6212908;23;19943;-81
2023/10/20 13:25:11;;;;;;;;;;;;;;;24.34;41.08;99067.38;6213321;23;19915;-82
2023/10/20 13:27:37;;;;;;;;;;;;;;;24.29;42.74;99070.44;6213400;23;19912;-82
2023/10/20 13:30:03;;;;;;;;;;;;;;;24.35;41.42;99067.25;6214022;23;19908;-82